CheckWX is a tool to help pilots better visualize weather data.  It is not intended as a substitute for an official pre-flight weather briefing.

02:08:08 UTC

KPPF METAR
Tri-City Airport
Parsons, Kansas, USA
Current

16 mins ago

KPPF 180152Z AUTO 34012KT 10SM CLR M03/M08 A3014 RMK AO2 SLP216 T10281078
Observed
Feb-18 @ 01:52 UTC
Wind
  • 340° at 12 KTS
Visibility
10 SM
Flight Rules
VFR
Cloud Levels
  • Clear skies
Temperature
-3°C / 27°F
Dewpoint
-8°C / 18°F
Humidity
69%
Altimeter
30.14" Hg
Pressure
1021.6 hPa
Previous

1 hour ago

KPPF 180052Z AUTO 34007KT 10SM CLR M02/M07 A3010 RMK AO2 SLP203 T10171072
Observed
Feb-18 @ 00:52 UTC
Wind
  • 340° at 7 KTS
Visibility
10 SM
Flight Rules
VFR
Cloud Levels
  • Clear skies
Temperature
-2°C / 28°F
Dewpoint
-7°C / 19°F
Humidity
69%
Altimeter
30.1" Hg
Pressure
1020.3 hPa
Previous

2 hours ago

KPPF 172352Z AUTO 33010KT 10SM CLR 00/M07 A3005 RMK AO2 SLP185 T00001072 10033 21011 53023
Observed
Feb-17 @ 23:52 UTC
Wind
  • 330° at 10 KTS
Visibility
10 SM
Flight Rules
VFR
Cloud Levels
  • Clear skies
Temperature
C / 32°F
Dewpoint
-7°C / 19°F
Humidity
60%
Altimeter
30.05" Hg
Pressure
1018.5 hPa